Map

Track Data

SID SEASON NUMBER BASIN SUBBASIN NAME ISO_TIME NATURE LAT LON WMO_WIND WMO_PRES WMO_AGENCY TRACK_TYPE DIST2LAND LANDFALL IFLAG USA_AGENCY USA_ATCF_ID USA_LAT USA_LON USA_RECORD USA_STATUS USA_WIND USA_PRES USA_SSHS USA_R34_NE USA_R34_SE USA_R34_SW USA_R34_NW USA_R50_NE USA_R50_SE USA_R50_SW USA_R50_NW USA_R64_NE USA_R64_SE USA_R64_SW USA_R64_NW USA_POCI USA_ROCI USA_RMW USA_EYE TOKYO_LAT TOKYO_LON TOKYO_GRADE TOKYO_WIND TOKYO_PRES TOKYO_R50_DIR TOKYO_R50_LONG TOKYO_R50_SHORT TOKYO_R30_DIR TOKYO_R30_LONG TOKYO_R30_SHORT TOKYO_LAND CMA_LAT CMA_LON CMA_CAT CMA_WIND CMA_PRES HKO_LAT HKO_LON HKO_CAT HKO_WIND HKO_PRES NEWDELHI_LAT NEWDELHI_LON NEWDELHI_GRADE NEWDELHI_WIND NEWDELHI_PRES NEWDELHI_CI NEWDELHI_DP NEWDELHI_POCI REUNION_LAT REUNION_LON REUNION_TYPE REUNION_WIND REUNION_PRES REUNION_TNUM REUNION_CI REUNION_RMW REUNION_R34_NE REUNION_R34_SE REUNION_R34_SW REUNION_R34_NW REUNION_R50_NE REUNION_R50_SE REUNION_R50_SW REUNION_R50_NW REUNION_R64_NE REUNION_R64_SE REUNION_R64_SW REUNION_R64_NW BOM_LAT BOM_LON BOM_TYPE BOM_WIND BOM_PRES BOM_TNUM BOM_CI BOM_RMW BOM_R34_NE BOM_R34_SE BOM_R34_SW BOM_R34_NW BOM_R50_NE BOM_R50_SE BOM_R50_SW BOM_R50_NW BOM_R64_NE BOM_R64_SE BOM_R64_SW BOM_R64_NW BOM_ROCI BOM_POCI BOM_EYE BOM_POS_METHOD BOM_PRES_METHOD NADI_LAT NADI_LON NADI_CAT NADI_WIND NADI_PRES WELLINGTON_LAT WELLINGTON_LON WELLINGTON_WIND WELLINGTON_PRES DS824_LAT DS824_LON DS824_STAGE DS824_WIND DS824_PRES TD9636_LAT TD9636_LON TD9636_STAGE TD9636_WIND TD9636_PRES TD9635_LAT TD9635_LON TD9635_WIND TD9635_PRES TD9635_ROCI NEUMANN_LAT NEUMANN_LON NEUMANN_CLASS NEUMANN_WIND NEUMANN_PRES MLC_LAT MLC_LON MLC_CLASS MLC_WIND MLC_PRES USA_GUST BOM_GUST BOM_GUST_PER REUNION_GUST REUNION_GUST_PER USA_SEAHGT USA_SEARAD_NE USA_SEARAD_SE USA_SEARAD_SW USA_SEARAD_NW STORM_SPEED STORM_DIR
1936310N17150 1936 64 WP MM NOT_NAMED 1936-11-05 10:00:00 NR 16.9000 149.900 main 2145 2143 __________O___ -1 16.9000 149.900 7 6 271
1936310N17150 1936 64 WP MM NOT_NAMED 1936-11-05 12:00:00 NR 16.9032 149.689 main 2143 2139 __________P___ -1 16.9032 149.689 7 6 271
1936310N17150 1936 64 WP MM NOT_NAMED 1936-11-05 15:00:00 NR 16.9067 149.358 main 2139 2135 __________P___ -1 16.9067 149.358 7 7 270
1936310N17150 1936 64 WP MM NOT_NAMED 1936-11-05 18:00:00 NR 16.9072 148.989 main 2135 2132 __________P___ -1 16.9072 148.989 7 8 270
1936310N17150 1936 64 WP MM NOT_NAMED 1936-11-05 21:00:00 NR 16.9028 148.560 main 2132 2131 __________P___ -1 16.9028 148.560 7 8 269
1936310N17150 1936 64 WP MM NOT_NAMED 1936-11-05 22:00:00 NR 16.9000 148.400 main 2131 2129 __________O___ -1 16.9000 148.400 7 10 269
1936310N17150 1936 64 WP MM NOT_NAMED 1936-11-06 00:00:00 NR 16.8919 148.051 main 2129 2128 __________P___ -1 16.8919 148.051 7 11 268
1936310N17150 1936 64 WP MM NOT_NAMED 1936-11-06 03:00:00 NR 16.8732 147.472 main 2128 2117 __________P___ -1 16.8732 147.472 7 12 268
1936310N17150 1936 64 WP MM NOT_NAMED 1936-11-06 06:00:00 NR 16.8469 146.849 main 2117 2116 __________P___ -1 16.8469 146.849 7 12 267
1936310N17150 1936 64 WP MM NOT_NAMED 1936-11-06 09:00:00 NR 16.8129 146.211 main 2116 2110 __________P___ -1 16.8129 146.211 7 12 267
1936310N17150 1936 64 WP MM NOT_NAMED 1936-11-06 10:00:00 NR 16.8000 146.000 main 2110 2097 __________O___ -1 16.8000 146.000 7 12 267
1936310N17150 1936 64 WP MM NOT_NAMED 1936-11-06 12:00:00 NR 16.7798 145.603 main 2097 2074 __________P___ -1 16.7798 145.603 7 11 267
1936310N17150 1936 64 WP MM NOT_NAMED 1936-11-06 15:00:00 NR 16.7437 145.007 main 2080 2054 __________P___ -1 16.7437 145.007 7 11 266
1936310N17150 1936 64 WP MM NOT_NAMED 1936-11-06 18:00:00 NR 16.6951 144.408 main 2054 2031 __________P___ -1 16.6951 144.408 7 12 264
1936310N17150 1936 64 WP MM NOT_NAMED 1936-11-06 21:00:00 NR 16.6277 143.803 main 2031 2010 __________P___ -1 16.6277 143.803 7 12 263
1936310N17150 1936 64 WP MM NOT_NAMED 1936-11-06 22:00:00 NR 16.6000 143.600 main 2010 1966 __________O___ -1 16.6000 143.600 7 12 261
1936310N17150 1936 64 WP MM NOT_NAMED 1936-11-07 00:00:00 NR 16.5411 143.200 main 1966 1901 __________P___ -1 16.5411 143.200 7 12 260
1936310N17150 1936 64 WP MM NOT_NAMED 1936-11-07 03:00:00 NR 16.4343 142.593 main 1901 1836 __________P___ -1 16.4343 142.593 7 12 259
1936310N17150 1936 64 WP MM NOT_NAMED 1936-11-07 06:00:00 NR 16.3056 141.971 main 1836 1761 __________P___ -1 16.3056 141.971 7 13 257
1936310N17150 1936 64 WP MM NOT_NAMED 1936-11-07 09:00:00 NR 16.1550 141.323 main 1761 1737 __________P___ -1 16.1550 141.323 7 13 256
1936310N17150 1936 64 WP MM NOT_NAMED 1936-11-07 10:00:00 NR 16.1000 141.100 main 1737 1683 __________O___ -1 16.1000 141.100 7 14 254
1936310N17150 1936 64 WP MM NOT_NAMED 1936-11-07 12:00:00 NR 15.9681 140.629 main 1683 1605 __________P___ -1 15.9681 140.629 7 15 253
1936310N17150 1936 64 WP MM NOT_NAMED 1936-11-07 15:00:00 NR 15.7510 139.896 main 1605 1524 __________P___ -1 15.7510 139.896 7 15 253
1936310N17150 1936 64 WP MM NOT_NAMED 1936-11-07 18:00:00 NR 15.5357 139.156 main 1524 1438 __________P___ -1 15.5357 139.156 7 15 254
1936310N17150 1936 64 WP MM NOT_NAMED 1936-11-07 21:00:00 NR 15.3503 138.433 main 1438 1415 __________P___ -1 15.3503 138.433 7 14 256
1936310N17150 1936 64 WP MM NOT_NAMED 1936-11-07 22:00:00 NR 15.3000 138.200 main 1415 1370 __________O___ -1 15.3000 138.200 7 13 258
1936310N17150 1936 64 WP MM NOT_NAMED 1936-11-08 00:00:00 NR 15.2108 137.756 main 1370 1295 __________P___ -1 15.2108 137.756 7 13 260
1936310N17150 1936 64 WP MM NOT_NAMED 1936-11-08 03:00:00 NR 15.1150 137.113 main 1295 1232 __________P___ -1 15.1150 137.113 7 12 263
1936310N17150 1936 64 WP MM NOT_NAMED 1936-11-08 06:00:00 NR 15.0701 136.496 main 1232 1170 __________P___ -1 15.0701 136.496 7 12 268
1936310N17150 1936 64 WP MM NOT_NAMED 1936-11-08 09:00:00 NR 15.0822 135.897 main 1170 1149 __________P___ -1 15.0822 135.897 7 12 272
1936310N17150 1936 64 WP MM NOT_NAMED 1936-11-08 10:00:00 NR 15.1000 135.700 main 1149 1107 __________O___ -1 15.1000 135.700 7 12 274
1936310N17150 1936 64 WP MM NOT_NAMED 1936-11-08 12:00:00 NR 15.1282 135.266 main 1107 1039 __________P___ -1 15.1282 135.266 7 13 277
1936310N17150 1936 64 WP MM NOT_NAMED 1936-11-08 15:00:00 NR 15.2206 134.627 main 1039 985 __________P___ -1 15.2206 134.627 7 12 282
1936310N17150 1936 64 WP MM NOT_NAMED 1936-11-08 18:00:00 NR 15.3780 134.038 main 985 943 __________P___ -1 15.3780 134.038 7 11 290
1936310N17150 1936 64 WP MM NOT_NAMED 1936-11-08 21:00:00 NR 15.6068 133.539 main 943 938 __________P___ -1 15.6068 133.539 7 10 298
1936310N17150 1936 64 WP MM NOT_NAMED 1936-11-08 22:00:00 NR 15.7000 133.400 main 938 923 __________O___ -1 15.7000 133.400 7 9 309
1936310N17150 1936 64 WP MM NOT_NAMED 1936-11-09 00:00:00 NR 15.8958 133.165 main 928 914 __________P___ -1 15.8958 133.165 7 9 319
1936310N17150 1936 64 WP MM NOT_NAMED 1936-11-09 03:00:00 NR 16.2530 132.907 main 920 916 __________P___ -1 16.2530 132.907 7 9 332
1936310N17150 1936 64 WP MM NOT_NAMED 1936-11-09 06:00:00 NR 16.6722 132.738 main 924 924 __________P___ -1 16.6722 132.738 7 9 343
1936310N17150 1936 64 WP MM NOT_NAMED 1936-11-09 09:00:00 NR 17.1374 132.628 main 940 946 __________P___ -1 17.1374 132.628 7 10 348
1936310N17150 1936 64 WP MM NOT_NAMED 1936-11-09 10:00:00 NR 17.3000 132.600 main 953 953 __________O___ -1 17.3000 132.600 7 10 345
1936310N17150 1936 64 WP MM NOT_NAMED 1936-11-09 12:00:00 NR 17.6186 132.491 main 960 960 __________P___ -1 17.6186 132.491 7 10 345
1936310N17150 1936 64 WP MM NOT_NAMED 1936-11-09 15:00:00 NR 18.1281 132.365 main 975 971 __________P___ -1 18.1281 132.365 7 11 351
1936310N17150 1936 64 WP MM NOT_NAMED 1936-11-09 18:00:00 NR 18.6645 132.309 main 999 999 __________P___ -1 18.6645 132.309 7 11 0
1936310N17150 1936 64 WP MM NOT_NAMED 1936-11-09 21:00:00 NR 19.2153 132.356 main 1038 1038 __________P___ -1 19.2153 132.356 7 11 7
1936310N17150 1936 64 WP MM NOT_NAMED 1936-11-09 22:00:00 NR 19.4000 132.400 main 1051 1051 __________O___ -1 19.4000 132.400 7 12 16
1936310N17150 1936 64 WP MM NOT_NAMED 1936-11-10 00:00:00 NR 19.7767 132.531 main 1082 1082 __________P___ -1 19.7767 132.531 7 12 23
1936310N17150 1936 64 WP MM NOT_NAMED 1936-11-10 03:00:00 NR 20.3485 132.828 main 1121 1123 __________P___ -1 20.3485 132.828 7 13 30
1936310N17150 1936 64 WP MM NOT_NAMED 1936-11-10 06:00:00 NR 20.9087 133.214 main 1155 1110 __________P___ -1 20.9087 133.214 7 13 35
1936310N17150 1936 64 WP MM NOT_NAMED 1936-11-10 09:00:00 NR 21.4355 133.650 main 1113 1094 __________P___ -1 21.4355 133.650 7 13 38
1936310N17150 1936 64 WP MM NOT_NAMED 1936-11-10 10:00:00 NR 21.6000 133.800 main 1094 1070 __________O___ -1 21.6000 133.800 7 11 42
1936310N17150 1936 64 WP MM NOT_NAMED 1936-11-10 12:00:00 NR 21.8612 134.059 main 1070 1049 __________P___ -1 21.8612 134.059 7 11 45
1936310N17150 1936 64 WP MM NOT_NAMED 1936-11-10 15:00:00 NR 22.2143 134.470 main 1052 1026 __________P___ -1 22.2143 134.470 7 11 48
1936310N17150 1936 64 WP MM NOT_NAMED 1936-11-10 18:00:00 NR 22.5797 134.920 main 1026 1006 __________P___ -1 22.5797 134.920 7 12 47
1936310N17150 1936 64 WP MM NOT_NAMED 1936-11-10 21:00:00 NR 23.0234 135.420 main 1006 996 __________P___ -1 23.0234 135.420 7 13 45
1936310N17150 1936 64 WP MM NOT_NAMED 1936-11-10 22:00:00 NR 23.2000 135.600 main 996 972 __________O___ -1 23.2000 135.600 7 16 41
1936310N17150 1936 64 WP MM NOT_NAMED 1936-11-11 00:00:00 NR 23.6290 135.997 main 977 933 __________P___ -1 23.6290 135.997 7 18 39
1936310N17150 1936 64 WP MM NOT_NAMED 1936-11-11 03:00:00 NR 24.3668 136.644 main 933 900 __________P___ -1 24.3668 136.644 7 20 38
1936310N17150 1936 64 WP MM NOT_NAMED 1936-11-11 06:00:00 NR 25.1785 137.320 main 900 852 __________P___ -1 25.1785 137.320 7 21 36
1936310N17150 1936 64 WP MM NOT_NAMED 1936-11-11 09:00:00 NR 26.0202 137.987 main 852 825 __________P___ -1 26.0202 137.987 7 21 35
1936310N17150 1936 64 WP MM NOT_NAMED 1936-11-11 10:00:00 NR 26.3000 138.200 main 825 773 __________O___ -1 26.3000 138.200 4 20 34
1936310N17150 1936 64 WP MM NOT_NAMED 1936-11-11 12:00:00 NR 26.8516 138.607 main 773 714 __________P___ -1 26.8516 138.607 4 19 33
1936310N17150 1936 64 WP MM NOT_NAMED 1936-11-11 15:00:00 NR 27.6611 139.176 main 714 660 __________P___ -1 27.6611 139.176 4 19 31
1936310N17150 1936 64 WP MM NOT_NAMED 1936-11-11 18:00:00 NR 28.4551 139.710 main 660 616 __________P___ -1 28.4551 139.710 4 18 30
1936310N17150 1936 64 WP MM NOT_NAMED 1936-11-11 21:00:00 NR 29.2397 140.228 main 616 588 __________P___ -1 29.2397 140.228 4 18 30
1936310N17150 1936 64 WP MM NOT_NAMED 1936-11-11 22:00:00 NR 29.5000 140.400 main 588 __________O___ -1 29.5000 140.400 4 18 29

Digital Typhoon Data and Search

About IBTrACS Database

This database is a web-friendly format of International Best Track Archive for Climate Stewardship (IBTrACS), a global best track data archive curated by NOAA dating back to 1842.

Updated: 2021-10-08